Time;durP1;ratioP1;P1;durP2;ratioP2;P2;SDS_P1;SDS_P2;PMS_P1;PMS_P2;Temp;Humidity;BMP_temperature;BMP_pressure;BME280_temperature;BME280_humidity;BME280_pressure;Samples;Min_cycle;Max_cycle;Signal;HPM_P1;HPM_P2
2023/05/10 00:04:33;;;;;;;;;;;;;;;;;;10292688;28;20083;-69
2023/05/10 00:09:32;;;;;;;9.90;7.18;;;;;;;;;;10297339;28;19960;-69
2023/05/10 00:14:31;;;;;;;14.27;7.85;;;;;;;;;;10301129;28;20075;-69
2023/05/10 00:19:29;;;;;;;8.93;6.93;;;;;;;;;;10299548;28;20088;-70
2023/05/10 00:24:27;;;;;;;8.93;7.05;;;;;;;;;;10305067;28;20072;-69
2023/05/10 00:29:27;;;;;;;9.25;7.47;;;;;;;;;;10299560;28;20076;-69
2023/05/10 00:34:27;;;;;;;15.85;8.57;;;;;;;;;;10306507;28;20064;-69
2023/05/10 00:39:26;;;;;;;9.70;8.35;;;;;;;;;;10301116;28;20507;-69
2023/05/10 00:44:24;;;;;;;8.85;6.85;;;;;;;;;;10305735;28;20075;-69
2023/05/10 00:49:22;;;;;;;7.85;6.72;;;;;;;;;;10297389;28;20072;-70
2023/05/10 00:54:22;;;;;;;8.45;7.60;;;;;;;;;;10304515;28;20077;-69
2023/05/10 00:59:22;;;;;;;9.40;8.40;;;;;;;;;;10304823;28;20554;-70
2023/05/10 01:04:25;;;;;;;11.38;8.10;;;;;;;;;;10304372;28;20057;-70
2023/05/10 01:09:26;;;;;;;8.75;7.93;;;;;;;;;;10297339;28;20084;-70
2023/05/10 01:14:25;;;;;;;9.60;8.32;;;;;;;;;;10300282;28;20067;-70
2023/05/10 01:19:25;;;;;;;12.70;9.02;;;;;;;;;;10298735;28;20502;-70
2023/05/10 01:24:35;;;;;;;10.77;9.23;;;;;;;;;;10297514;28;20063;-70
2023/05/10 01:29:45;;;;;;;10.45;8.75;;;;;;;;;;10301966;28;20068;-70
2023/05/10 01:34:48;;;;;;;9.20;8.30;;;;;;;;;;10300235;28;20102;-70
2023/05/10 01:39:48;;;;;;;17.17;8.38;;;;;;;;;;10298098;28;20073;-70
2023/05/10 01:44:50;;;;;;;8.95;8.05;;;;;;;;;;10304100;28;20047;-69
2023/05/10 01:49:50;;;;;;;10.40;9.45;;;;;;;;;;10296285;28;20075;-70
2023/05/10 01:54:51;;;;;;;11.15;9.95;;;;;;;;;;10299273;28;20076;-70
2023/05/10 01:59:50;;;;;;;9.18;8.38;;;;;;;;;;10301699;28;20098;-70
2023/05/10 02:04:51;;;;;;;9.90;8.95;;;;;;;;;;10297474;28;20100;-70
2023/05/10 02:09:50;;;;;;;7.75;7.05;;;;;;;;;;10297997;28;20095;-70
2023/05/10 02:14:48;;;;;;;8.38;7.57;;;;;;;;;;10294523;28;20070;-70
2023/05/10 02:19:47;;;;;;;8.95;8.05;;;;;;;;;;10294419;28;20083;-70
2023/05/10 02:24:47;;;;;;;11.93;9.20;;;;;;;;;;10296635;28;20060;-70
2023/05/10 02:29:46;;;;;;;11.13;9.07;;;;;;;;;;10292959;28;20068;-70
2023/05/10 02:34:51;;;;;;;9.93;7.75;;;;;;;;;;10297263;28;20072;-69
2023/05/10 02:39:51;;;;;;;8.00;6.82;;;;;;;;;;10294809;28;20528;-70
2023/05/10 02:44:51;;;;;;;8.10;6.65;;;;;;;;;;10293671;28;20064;-71
2023/05/10 02:49:49;;;;;;;7.10;6.50;;;;;;;;;;10291931;28;20044;-68
2023/05/10 02:54:51;;;;;;;8.50;7.35;;;;;;;;;;10296570;28;20444;-70
2023/05/10 02:59:51;;;;;;;8.10;7.40;;;;;;;;;;10294473;28;20918;-70
2023/05/10 03:04:49;;;;;;;7.85;7.05;;;;;;;;;;10309278;28;20041;-70
2023/05/10 03:09:48;;;;;;;9.43;7.30;;;;;;;;;;10293485;28;20087;-70
2023/05/10 03:14:49;;;;;;;7.97;7.25;;;;;;;;;;10288462;28;20087;-70
2023/05/10 03:19:56;;;;;;;8.60;7.05;;;;;;;;;;10303568;28;20080;-70
2023/05/10 03:24:56;;;;;;;7.13;6.53;;;;;;;;;;10300885;28;20084;-70
2023/05/10 03:29:57;;;;;;;8.23;7.43;;;;;;;;;;10294437;28;20068;-70
2023/05/10 03:34:57;;;;;;;8.90;6.80;;;;;;;;;;10302187;28;20498;-70
2023/05/10 03:39:56;;;;;;;7.50;6.90;;;;;;;;;;10308334;28;20101;-70
2023/05/10 03:44:54;;;;;;;9.55;8.10;;;;;;;;;;10295656;28;20072;-69
2023/05/10 03:49:53;;;;;;;8.07;7.28;;;;;;;;;;10301899;28;20075;-70
2023/05/10 03:54:52;;;;;;;8.65;7.85;;;;;;;;;;10304735;28;20076;-71
2023/05/10 03:59:51;;;;;;;8.88;7.97;;;;;;;;;;10293251;28;20079;-72
2023/05/10 04:04:50;;;;;;;9.30;8.40;;;;;;;;;;10304347;28;20071;-72
2023/05/10 04:09:48;;;;;;;8.68;7.55;;;;;;;;;;10306349;28;20482;-72
2023/05/10 04:14:48;;;;;;;10.45;9.40;;;;;;;;;;10302307;28;20080;-71
2023/05/10 04:19:46;;;;;;;11.10;9.98;;;;;;;;;;10295796;28;20089;-70
2023/05/10 04:24:44;;;;;;;11.13;9.82;;;;;;;;;;10298512;28;20068;-71
2023/05/10 04:29:42;;;;;;;10.35;8.55;;;;;;;;;;10298046;28;20075;-71
2023/05/10 04:34:42;;;;;;;10.30;8.80;;;;;;;;;;10305833;28;20060;-71
2023/05/10 04:39:40;;;;;;;20.88;15.60;;;;;;;;;;10298181;28;20068;-72
2023/05/10 04:44:39;;;;;;;11.55;10.45;;;;;;;;;;10300851;28;20074;-70
2023/05/10 04:49:37;;;;;;;16.73;10.30;;;;;;;;;;10294560;28;20438;-70
2023/05/10 04:54:37;;;;;;;11.00;9.90;;;;;;;;;;10293120;28;20485;-71
2023/05/10 04:59:36;;;;;;;10.32;9.20;;;;;;;;;;10292904;28;20431;-71
2023/05/10 05:04:34;;;;;;;9.63;8.63;;;;;;;;;;10291942;28;20737;-71
2023/05/10 05:09:32;;;;;;;9.85;8.85;;;;;;;;;;10287933;28;20715;-70
2023/05/10 05:14:32;;;;;;;12.05;10.30;;;;;;;;;;10293283;28;20064;-70
2023/05/10 05:19:31;;;;;;;11.88;9.23;;;;;;;;;;10294155;28;20084;-68
2023/05/10 05:24:30;;;;;;;13.05;8.75;;;;;;;;;;10295175;28;20068;-70
2023/05/10 05:29:28;;;;;;;11.57;8.85;;;;;;;;;;10297206;28;20076;-69
2023/05/10 05:34:27;;;;;;;9.77;8.52;;;;;;;;;;10300458;28;20076;-68
2023/05/10 05:39:26;;;;;;;9.07;8.25;;;;;;;;;;10298208;28;20533;-69
2023/05/10 05:44:24;;;;;;;8.30;7.60;;;;;;;;;;10304810;28;20080;-68
2023/05/10 05:49:22;;;;;;;10.32;9.23;;;;;;;;;;10293520;28;20517;-69
2023/05/10 05:54:22;;;;;;;14.20;10.73;;;;;;;;;;10290812;28;20103;-70
2023/05/10 05:59:20;;;;;;;17.05;14.80;;;;;;;;;;10291977;28;20088;-69
2023/05/10 06:04:18;;;;;;;16.95;15.18;;;;;;;;;;10292865;28;20490;-72
2023/05/10 06:09:25;;;;;;;8.10;7.30;;;;;;;;;;10290761;28;20483;-69
2023/05/10 06:14:25;;;;;;;9.27;7.60;;;;;;;;;;10291185;28;20064;-69
2023/05/10 06:19:23;;;;;;;11.23;8.23;;;;;;;;;;10291022;28;20517;-69
2023/05/10 06:24:21;;;;;;;10.70;7.80;;;;;;;;;;10293299;28;20064;-69
2023/05/10 06:29:19;;;;;;;8.93;8.02;;;;;;;;;;10295194;28;20061;-70
2023/05/10 06:34:19;;;;;;;11.13;10.05;;;;;;;;;;10289827;28;20087;-70
2023/05/10 06:39:17;;;;;;;21.08;14.35;;;;;;;;;;10290807;28;20075;-70
2023/05/10 06:44:15;;;;;;;19.10;14.73;;;;;;;;;;10291401;28;20103;-71
2023/05/10 06:49:15;;;;;;;11.25;9.40;;;;;;;;;;10289746;28;20501;-71
2023/05/10 06:54:15;;;;;;;8.88;7.97;;;;;;;;;;10287556;28;20072;-70
2023/05/10 06:59:13;;;;;;;12.60;9.27;;;;;;;;;;10301795;28;20088;-70
2023/05/10 07:04:12;;;;;;;18.90;14.13;;;;;;;;;;10293706;28;20068;-71
2023/05/10 07:09:10;;;;;;;18.70;13.95;;;;;;;;;;10296087;28;20083;-71
2023/05/10 07:14:10;;;;;;;11.68;10.48;;;;;;;;;;10294427;28;20091;-71
2023/05/10 07:19:08;;;;;;;11.75;8.60;;;;;;;;;;10293944;28;20466;-70
2023/05/10 07:24:07;;;;;;;11.27;8.20;;;;;;;;;;10299904;28;20067;-71
2023/05/10 07:29:05;;;;;;;11.35;8.80;;;;;;;;;;10303697;28;20060;-71
2023/05/10 07:34:05;;;;;;;16.13;11.18;;;;;;;;;;10302376;28;20257;-70
2023/05/10 07:39:03;;;;;;;12.30;10.82;;;;;;;;;;10302487;28;20470;-70
2023/05/10 07:44:01;;;;;;;11.65;7.30;;;;;;;;;;10303003;28;20139;-71
2023/05/10 07:48:59;;;;;;;10.82;7.85;;;;;;;;;;10299280;28;20071;-70
2023/05/10 07:53:59;;;;;;;8.18;7.47;;;;;;;;;;10301442;28;20075;-71
2023/05/10 07:58:57;;;;;;;7.05;5.05;;;;;;;;;;10301267;28;20068;-70
2023/05/10 08:03:56;;;;;;;6.10;5.55;;;;;;;;;;10301834;28;20069;-73
2023/05/10 08:08:55;;;;;;;8.93;7.78;;;;;;;;;;10302348;28;20072;-72
2023/05/10 08:13:55;;;;;;;6.20;5.50;;;;;;;;;;10300290;28;20072;-74
2023/05/10 08:18:55;;;;;;;5.38;4.00;;;;;;;;;;10301142;28;20099;-73
2023/05/10 08:23:53;;;;;;;7.82;5.18;;;;;;;;;;10300724;28;20037;-73
2023/05/10 08:28:51;;;;;;;5.85;4.55;;;;;;;;;;10301848;28;20068;-73
2023/05/10 08:33:52;;;;;;;16.25;11.18;;;;;;;;;;10297512;28;20450;-73
2023/05/10 08:38:51;;;;;;;4.00;3.60;;;;;;;;;;10299783;28;20072;-74
2023/05/10 08:43:49;;;;;;;3.80;3.38;;;;;;;;;;10300532;28;20069;-73
2023/05/10 08:48:48;;;;;;;7.40;2.92;;;;;;;;;;10300439;28;20064;-73
2023/05/10 08:53:47;;;;;;;5.53;2.72;;;;;;;;;;10298247;28;20045;-73
2023/05/10 08:58:46;;;;;;;3.65;3.20;;;;;;;;;;10296521;28;20068;-73
2023/05/10 09:03:44;;;;;;;2.80;2.60;;;;;;;;;;10298501;28;20060;-72
2023/05/10 09:08:44;;;;;;;2.92;2.65;;;;;;;;;;10300360;28;20465;-72
2023/05/10 09:13:44;;;;;;;7.70;2.80;;;;;;;;;;10298595;28;20626;-71
2023/05/10 09:18:42;;;;;;;5.53;4.25;;;;;;;;;;10298889;28;20075;-71
2023/05/10 09:23:43;;;;;;;5.45;3.13;;;;;;;;;;10294309;28;20076;-70
2023/05/10 09:28:53;;;;;;;4.00;3.60;;;;;;;;;;10298329;28;20685;-70
2023/05/10 09:33:51;;;;;;;5.05;2.95;;;;;;;;;;10298643;28;20056;-70
2023/05/10 09:38:50;;;;;;;6.15;3.95;;;;;;;;;;10295662;28;20072;-70
2023/05/10 09:43:48;;;;;;;3.28;2.97;;;;;;;;;;10297478;28;20067;-71
2023/05/10 09:48:48;;;;;;;6.30;4.10;;;;;;;;;;10297847;28;20072;-70
2023/05/10 09:53:50;;;;;;;9.98;5.15;;;;;;;;;;10294594;28;20071;-70
2023/05/10 09:59:03;;;;;;;7.40;3.10;;;;;;;;;;10296471;28;20076;-71
2023/05/10 10:04:04;;;;;;;5.43;3.00;;;;;;;;;;10296235;28;20079;-71
2023/05/10 10:09:03;;;;;;;6.22;3.70;;;;;;;;;;10297367;28;20144;-73
2023/05/10 10:14:02;;;;;;;4.45;2.92;;;;;;;;;;10296896;28;20103;-68
2023/05/10 10:19:00;;;;;;;5.80;2.65;;;;;;;;;;10296941;28;20494;-70
2023/05/10 10:23:59;;;;;;;3.53;3.13;;;;;;;;;;10296276;28;20454;-71
2023/05/10 10:29:07;;;;;;;3.63;2.72;;;;;;;;;;10296375;28;20071;-69
2023/05/10 10:34:07;;;;;;;4.90;2.60;;;;;;;;;;10296621;28;20076;-71
2023/05/10 10:39:10;;;;;;;3.03;2.75;;;;;;;;;;10293810;28;20061;-69
2023/05/10 10:44:24;;;;;;;3.97;2.90;;;;;;;;;;10307985;28;20048;-69
2023/05/10 10:49:22;;;;;;;3.03;2.30;;;;;;;;;;10297047;28;20081;-70
2023/05/10 10:54:29;;;;;;;3.03;2.70;;;;;;;;;;10295165;28;20148;-71
2023/05/10 10:59:27;;;;;;;6.05;2.78;;;;;;;;;;10290553;28;20072;-70
2023/05/10 11:04:26;;;;;;;3.95;2.75;;;;;;;;;;10290144;28;20473;-70
2023/05/10 11:09:28;;;;;;;2.45;2.25;;;;;;;;;;10294737;28;20079;-71
2023/05/10 11:14:26;;;;;;;2.40;2.15;;;;;;;;;;10294336;28;20509;-71
2023/05/10 11:19:28;;;;;;;2.65;2.35;;;;;;;;;;10294402;28;20076;-70
2023/05/10 11:24:28;;;;;;;1.90;1.80;;;;;;;;;;10295085;28;20080;-70
2023/05/10 11:29:27;;;;;;;4.38;2.10;;;;;;;;;;10295392;28;20098;-71
2023/05/10 11:34:26;;;;;;;3.22;2.00;;;;;;;;;;10293577;28;20068;-71
2023/05/10 11:39:26;;;;;;;4.22;2.00;;;;;;;;;;10294833;28;20060;-70
2023/05/10 11:44:29;;;;;;;2.70;2.35;;;;;;;;;;10295374;28;20490;-71
2023/05/10 11:49:29;;;;;;;7.18;3.15;;;;;;;;;;10293721;28;20072;-71
2023/05/10 11:54:27;;;;;;;2.75;2.00;;;;;;;;;;10293632;28;20159;-71
2023/05/10 11:59:26;;;;;;;6.03;2.78;;;;;;;;;;10293878;28;20072;-71
2023/05/10 12:04:24;;;;;;;4.45;2.08;;;;;;;;;;10292885;28;20077;-71
2023/05/10 12:09:24;;;;;;;6.13;2.00;;;;;;;;;;10294895;28;20081;-70
2023/05/10 12:14:40;;;;;;;2.35;2.03;;;;;;;;;;10302101;28;20332;-71
2023/05/10 12:19:38;;;;;;;4.28;2.70;;;;;;;;;;10304651;28;20501;-70
2023/05/10 12:24:38;;;;;;;2.60;1.95;;;;;;;;;;10300861;28;20083;-71
2023/05/10 12:29:39;;;;;;;2.95;2.53;;;;;;;;;;10300313;28;20079;-71
2023/05/10 12:34:39;;;;;;;5.65;2.10;;;;;;;;;;10301901;28;20080;-71
2023/05/10 12:39:42;;;;;;;5.20;1.73;;;;;;;;;;10301282;28;20076;-71
2023/05/10 12:44:41;;;;;;;2.42;2.20;;;;;;;;;;10297798;28;20080;-71
2023/05/10 12:49:39;;;;;;;3.30;2.28;;;;;;;;;;10300555;28;20072;-71
2023/05/10 12:54:37;;;;;;;2.25;2.00;;;;;;;;;;10300837;28;20084;-71
2023/05/10 12:59:36;;;;;;;4.28;2.80;;;;;;;;;;10300547;28;20060;-71
2023/05/10 13:04:37;;;;;;;2.28;1.95;;;;;;;;;;10298821;28;20493;-71
2023/05/10 13:09:35;;;;;;;2.95;2.50;;;;;;;;;;10300337;28;20064;-71
2023/05/10 13:14:33;;;;;;;1.77;1.67;;;;;;;;;;10298427;28;20064;-73
2023/05/10 13:19:33;;;;;;;3.65;3.05;;;;;;;;;;10294840;28;20087;-74
2023/05/10 13:24:31;;;;;;;3.72;2.30;;;;;;;;;;10298456;28;20064;-73
2023/05/10 13:29:29;;;;;;;6.45;2.17;;;;;;;;;;10298478;28;20483;-74
2023/05/10 13:34:27;;;;;;;5.00;3.90;;;;;;;;;;10298027;28;20072;-71
2023/05/10 13:39:27;;;;;;;5.07;4.32;;;;;;;;;;10298215;28;20068;-73
2023/05/10 13:44:25;;;;;;;5.93;3.58;;;;;;;;;;10291399;28;20502;-72
2023/05/10 13:49:23;;;;;;;5.18;2.80;;;;;;;;;;10296679;28;20071;-72
2023/05/10 13:54:22;;;;;;;8.73;2.92;;;;;;;;;;10298233;28;20060;-71
2023/05/10 13:59:22;;;;;;;3.67;2.65;;;;;;;;;;10296457;28;20080;-72
2023/05/10 14:04:20;;;;;;;5.53;4.05;;;;;;;;;;10290119;28;20071;-74
2023/05/10 14:09:18;;;;;;;3.03;2.45;;;;;;;;;;10297997;28;20067;-71
2023/05/10 14:14:17;;;;;;;4.05;2.50;;;;;;;;;;10293569;28;20064;-71
2023/05/10 14:19:16;;;;;;;3.17;2.45;;;;;;;;;;10297446;28;20076;-72
2023/05/10 14:24:14;;;;;;;5.00;2.10;;;;;;;;;;10295731;28;20072;-71
2023/05/10 14:29:12;;;;;;;2.10;1.90;;;;;;;;;;10292481;28;20068;-71
2023/05/10 14:34:11;;;;;;;8.35;2.70;;;;;;;;;;10294119;28;20079;-71
2023/05/10 14:39:12;;;;;;;2.03;1.70;;;;;;;;;;10296600;28;20545;-72
2023/05/10 14:44:10;;;;;;;4.25;2.38;;;;;;;;;;10296079;28;20072;-70
2023/05/10 14:49:09;;;;;;;3.60;2.90;;;;;;;;;;10295879;28;20075;-71
2023/05/10 14:54:07;;;;;;;2.38;2.20;;;;;;;;;;10295786;28;20072;-71
2023/05/10 14:59:06;;;;;;;5.13;2.78;;;;;;;;;;10296142;28;20079;-71
2023/05/10 15:04:05;;;;;;;7.93;7.10;;;;;;;;;;10294556;28;20083;-71
2023/05/10 15:09:04;;;;;;;6.57;4.85;;;;;;;;;;10295493;28;20069;-71
2023/05/10 15:14:02;;;;;;;8.07;7.30;;;;;;;;;;10294992;28;20072;-71
2023/05/10 15:19:02;;;;;;;4.15;2.92;;;;;;;;;;10301015;28;20052;-71
2023/05/10 15:24:00;;;;;;;3.97;2.90;;;;;;;;;;10295366;28;20076;-71
2023/05/10 15:28:58;;;;;;;4.32;2.70;;;;;;;;;;10289265;28;20071;-71
2023/05/10 15:33:57;;;;;;;2.92;2.65;;;;;;;;;;10295095;28;20095;-71
2023/05/10 15:38:57;;;;;;;4.43;2.72;;;;;;;;;;10295029;28;20068;-71
2023/05/10 15:43:55;;;;;;;5.43;2.80;;;;;;;;;;10299702;28;20071;-70
2023/05/10 15:48:53;;;;;;;6.78;3.30;;;;;;;;;;10304362;28;20072;-71
2023/05/10 15:53:52;;;;;;;3.10;2.47;;;;;;;;;;10311604;28;20481;-71
2023/05/10 15:59:07;;;;;;;5.68;2.97;;;;;;;;;;10307306;28;20064;-68
2023/05/10 16:04:05;;;;;;;10.10;3.65;;;;;;;;;;10300939;28;20478;-69
2023/05/10 16:09:03;;;;;;;5.63;4.07;;;;;;;;;;10306999;28;20091;-69
2023/05/10 16:14:02;;;;;;;4.10;3.60;;;;;;;;;;10301415;28;20084;-69
2023/05/10 16:19:03;;;;;;;5.20;3.35;;;;;;;;;;10300758;28;20072;-68
2023/05/10 16:24:03;;;;;;;6.65;4.78;;;;;;;;;;10300051;28;20075;-69
2023/05/10 16:29:01;;;;;;;3.05;2.67;;;;;;;;;;10304018;28;20064;-68
2023/05/10 16:34:01;;;;;;;4.07;3.13;;;;;;;;;;10299958;28;20083;-70
2023/05/10 16:39:00;;;;;;;5.63;2.88;;;;;;;;;;10304137;28;20947;-70
2023/05/10 16:43:59;;;;;;;4.95;3.20;;;;;;;;;;10301006;28;20078;-69
2023/05/10 16:48:58;;;;;;;4.55;2.88;;;;;;;;;;10302674;28;20064;-69
2023/05/10 16:53:56;;;;;;;5.53;2.97;;;;;;;;;;10301913;28;20083;-69
2023/05/10 16:58:56;;;;;;;4.57;3.80;;;;;;;;;;10300570;28;20079;-69
2023/05/10 17:03:54;;;;;;;3.70;2.90;;;;;;;;;;10299898;28;20471;-69
2023/05/10 17:08:53;;;;;;;4.75;3.40;;;;;;;;;;10299545;28;20178;-71
2023/05/10 17:13:51;;;;;;;3.10;2.85;;;;;;;;;;10299189;28;20068;-68
2023/05/10 17:18:52;;;;;;;5.22;3.13;;;;;;;;;;10297949;28;20081;-71
2023/05/10 17:23:50;;;;;;;5.20;4.68;;;;;;;;;;10292970;28;20093;-70
2023/05/10 17:28:49;;;;;;;7.85;2.90;;;;;;;;;;10303247;28;20796;-71
2023/05/10 17:33:47;;;;;;;4.97;3.22;;;;;;;;;;10297631;28;20067;-70
2023/05/10 17:38:49;;;;;;;3.88;2.50;;;;;;;;;;10301329;28;20516;-71
2023/05/10 17:43:47;;;;;;;4.25;3.72;;;;;;;;;;10305818;28;20080;-69
2023/05/10 17:48:45;;;;;;;8.65;5.15;;;;;;;;;;10298556;28;20071;-71
2023/05/10 17:53:43;;;;;;;9.38;4.72;;;;;;;;;;10297766;28;20076;-70
2023/05/10 17:58:43;;;;;;;6.72;4.93;;;;;;;;;;10299387;28;20079;-70
2023/05/10 18:03:41;;;;;;;9.70;5.05;;;;;;;;;;10295412;28;20088;-70
2023/05/10 18:08:40;;;;;;;8.30;3.55;;;;;;;;;;10297931;28;20450;-70
2023/05/10 18:13:38;;;;;;;6.40;3.47;;;;;;;;;;10294437;28;20080;-70
2023/05/10 18:18:38;;;;;;;6.60;3.13;;;;;;;;;;10303313;28;20079;-69
2023/05/10 18:23:36;;;;;;;4.18;3.15;;;;;;;;;;10301336;28;20079;-70
2023/05/10 18:28:34;;;;;;;9.10;3.83;;;;;;;;;;10297489;28;20075;-70
2023/05/10 18:33:32;;;;;;;6.72;3.55;;;;;;;;;;10295270;28;20078;-71
2023/05/10 18:38:32;;;;;;;5.07;4.32;;;;;;;;;;10300881;28;20079;-70
2023/05/10 18:43:33;;;;;;;4.63;4.15;;;;;;;;;;10299430;28;20088;-71
2023/05/10 18:48:33;;;;;;;5.18;4.07;;;;;;;;;;10291994;28;20060;-70
2023/05/10 18:53:32;;;;;;;8.13;4.03;;;;;;;;;;10293219;28;20467;-70
2023/05/10 18:58:31;;;;;;;6.80;4.45;;;;;;;;;;10296112;28;20166;-70
2023/05/10 19:03:32;;;;;;;5.72;3.33;;;;;;;;;;10294092;28;20139;-70
2023/05/10 19:08:31;;;;;;;4.00;3.55;;;;;;;;;;10297102;28;20087;-70
2023/05/10 19:13:30;;;;;;;7.75;3.30;;;;;;;;;;10296809;28;20536;-71
2023/05/10 19:18:31;;;;;;;5.85;4.60;;;;;;;;;;10302604;28;20091;-70
2023/05/10 19:23:33;;;;;;;7.07;3.35;;;;;;;;;;10304595;28;20170;-70
2023/05/10 19:28:34;;;;;;;9.95;3.83;;;;;;;;;;10302439;28;20080;-69
2023/05/10 19:33:35;;;;;;;4.43;2.97;;;;;;;;;;10301899;28;20072;-70
2023/05/10 19:38:33;;;;;;;4.78;3.72;;;;;;;;;;10300572;28;20072;-70
2023/05/10 19:43:33;;;;;;;3.85;3.17;;;;;;;;;;10302343;28;20472;-70
2023/05/10 19:48:32;;;;;;;3.05;2.75;;;;;;;;;;10304890;28;20052;-69
2023/05/10 19:53:33;;;;;;;6.13;3.13;;;;;;;;;;10304513;28;20071;-70
2023/05/10 19:58:33;;;;;;;5.63;2.80;;;;;;;;;;10305650;28;20079;-71
2023/05/10 20:03:32;;;;;;;2.70;2.47;;;;;;;;;;10303165;28;20080;-69
2023/05/10 20:08:30;;;;;;;4.05;2.60;;;;;;;;;;10305362;28;20079;-69
2023/05/10 20:13:29;;;;;;;4.78;2.92;;;;;;;;;;10307531;28;20075;-69
2023/05/10 20:18:28;;;;;;;2.75;2.55;;;;;;;;;;10294724;28;20084;-69
2023/05/10 20:23:27;;;;;;;3.15;2.60;;;;;;;;;;10304808;28;20076;-69
2023/05/10 20:28:25;;;;;;;3.53;2.67;;;;;;;;;;10300888;28;20064;-69
2023/05/10 20:33:24;;;;;;;3.33;2.70;;;;;;;;;;10299809;28;20079;-70
2023/05/10 20:38:24;;;;;;;3.70;3.17;;;;;;;;;;10306585;28;20113;-70
2023/05/10 20:43:22;;;;;;;6.53;3.10;;;;;;;;;;10303125;28;20076;-70
2023/05/10 20:48:20;;;;;;;5.18;3.10;;;;;;;;;;10306436;28;20076;-70
2023/05/10 20:53:18;;;;;;;3.58;3.22;;;;;;;;;;10300728;28;20439;-70
2023/05/10 20:58:18;;;;;;;6.75;3.70;;;;;;;;;;10303965;28;20075;-69
2023/05/10 21:03:16;;;;;;;4.63;3.05;;;;;;;;;;10300978;28;20072;-69
2023/05/10 21:08:18;;;;;;;5.85;2.80;;;;;;;;;;10299060;28;20067;-69
2023/05/10 21:13:16;;;;;;;5.30;2.63;;;;;;;;;;10303965;28;20532;-69
2023/05/10 21:18:16;;;;;;;7.25;3.17;;;;;;;;;;10300900;28;20087;-70
2023/05/10 21:23:14;;;;;;;3.25;2.92;;;;;;;;;;10296464;28;20084;-69
2023/05/10 21:28:12;;;;;;;5.90;3.35;;;;;;;;;;10301040;28;20071;-70
2023/05/10 21:33:11;;;;;;;4.57;2.83;;;;;;;;;;10300593;28;20065;-70
2023/05/10 21:38:11;;;;;;;7.82;3.53;;;;;;;;;;10295509;28;20077;-69
2023/05/10 21:43:10;;;;;;;3.20;2.83;;;;;;;;;;10300353;28;20076;-70
2023/05/10 21:48:08;;;;;;;8.75;3.58;;;;;;;;;;10299740;28;20079;-70
2023/05/10 21:53:06;;;;;;;7.75;3.78;;;;;;;;;;10302536;28;20067;-70
2023/05/10 21:58:06;;;;;;;4.03;3.00;;;;;;;;;;10301568;28;20091;-70
2023/05/10 22:03:04;;;;;;;6.20;3.15;;;;;;;;;;10303228;28;20170;-69
2023/05/10 22:08:02;;;;;;;6.15;3.50;;;;;;;;;;10298189;28;20528;-70
2023/05/10 22:13:00;;;;;;;6.95;3.40;;;;;;;;;;10299842;28;20570;-70
2023/05/10 22:18:00;;;;;;;6.72;3.92;;;;;;;;;;10299748;28;20068;-70
2023/05/10 22:22:58;;;;;;;4.40;3.30;;;;;;;;;;10298466;28;20072;-70
2023/05/10 22:27:56;;;;;;;5.10;3.33;;;;;;;;;;10298407;28;20067;-70
2023/05/10 22:32:54;;;;;;;6.47;3.63;;;;;;;;;;10297044;28;20060;-70
2023/05/10 22:37:54;;;;;;;7.97;3.85;;;;;;;;;;10297148;28;20492;-70
2023/05/10 22:42:52;;;;;;;6.53;3.00;;;;;;;;;;10300442;28;20064;-70
2023/05/10 22:47:51;;;;;;;4.63;3.50;;;;;;;;;;10298885;28;20087;-70
2023/05/10 22:52:49;;;;;;;5.82;3.78;;;;;;;;;;10299368;28;20493;-70
2023/05/10 22:57:48;;;;;;;3.65;3.35;;;;;;;;;;10294687;28;20071;-71
2023/05/10 23:02:47;;;;;;;7.13;3.53;;;;;;;;;;10298297;28;20061;-70
2023/05/10 23:07:47;;;;;;;6.78;3.75;;;;;;;;;;10297961;28;20194;-70
2023/05/10 23:12:45;;;;;;;5.72;3.75;;;;;;;;;;10297027;28;20064;-70
2023/05/10 23:17:45;;;;;;;5.40;3.47;;;;;;;;;;10298485;28;20059;-70
2023/05/10 23:22:43;;;;;;;5.13;3.78;;;;;;;;;;10298312;28;20057;-70
2023/05/10 23:27:42;;;;;;;3.97;2.97;;;;;;;;;;10313601;28;20077;-70
2023/05/10 23:32:40;;;;;;;6.43;3.63;;;;;;;;;;10299602;28;20529;-69
2023/05/10 23:37:41;;;;;;;5.63;4.20;;;;;;;;;;10295733;28;20077;-70
2023/05/10 23:42:39;;;;;;;7.40;3.70;;;;;;;;;;10293934;28;20076;-70
2023/05/10 23:47:37;;;;;;;5.97;4.15;;;;;;;;;;10292314;28;20071;-69
2023/05/10 23:52:35;;;;;;;8.55;3.30;;;;;;;;;;10300271;28;20068;-69
2023/05/10 23:57:35;;;;;;;4.18;3.55;;;;;;;;;;10299272;28;20067;-70
